Terminal Aerodrome Forecast
Issued by NWS Melbourne, FL

Home | Current Version | Previous Version | Text Only | Print | Product List | Glossary On
Versions: 1 2 3 4 5 6 7 8 9 10 11 12 13 14 15 16 17
909
FTUS42 KMLB 212320
TAFVRB
TAF
KVRB 212320Z 2200/2224 12006KT P6SM VCSH FEW025 SCT080 OVC250
     FM221400 13011KT P6SM VCSH SCT025 BKN040 OVC070
      TEMPO 2214/2218 2SM SHRA BKN025=

USA.gov is the U.S. government's official web portal to all federal, state and local government web resources and services.